sensor_id;sensor_type;location;lat;lon;timestamp;P1;durP1;ratioP1;P2;durP2;ratioP2
8536;SDS011;4306;50.210;10.628;2023-12-29T00:00:50;2.63;;;1.95;;
8536;SDS011;4306;50.210;10.628;2023-12-29T00:03:17;3.20;;;2.20;;
8536;SDS011;4306;50.210;10.628;2023-12-29T00:05:44;3.33;;;2.03;;
8536;SDS011;4306;50.210;10.628;2023-12-29T00:08:11;3.33;;;2.05;;
8536;SDS011;4306;50.210;10.628;2023-12-29T00:10:38;2.70;;;1.95;;
8536;SDS011;4306;50.210;10.628;2023-12-29T00:13:05;2.67;;;2.10;;
8536;SDS011;4306;50.210;10.628;2023-12-29T00:15:32;3.00;;;1.90;;
8536;SDS011;4306;50.210;10.628;2023-12-29T00:18:01;2.88;;;2.00;;
8536;SDS011;4306;50.210;10.628;2023-12-29T00:20:28;3.17;;;2.00;;
8536;SDS011;4306;50.210;10.628;2023-12-29T00:22:55;4.50;;;2.78;;
8536;SDS011;4306;50.210;10.628;2023-12-29T00:25:23;3.60;;;2.63;;
8536;SDS011;4306;50.210;10.628;2023-12-29T00:27:51;3.70;;;2.50;;
8536;SDS011;4306;50.210;10.628;2023-12-29T00:30:18;2.92;;;2.20;;
8536;SDS011;4306;50.210;10.628;2023-12-29T00:32:45;4.00;;;2.75;;
8536;SDS011;4306;50.210;10.628;2023-12-29T00:35:14;3.13;;;2.25;;
8536;SDS011;4306;50.210;10.628;2023-12-29T00:37:41;4.18;;;2.65;;
8536;SDS011;4306;50.210;10.628;2023-12-29T00:40:08;3.92;;;2.72;;
8536;SDS011;4306;50.210;10.628;2023-12-29T00:42:36;3.58;;;2.70;;
8536;SDS011;4306;50.210;10.628;2023-12-29T00:45:04;4.05;;;2.88;;
8536;SDS011;4306;50.210;10.628;2023-12-29T00:47:32;3.67;;;2.65;;
8536;SDS011;4306;50.210;10.628;2023-12-29T00:49:59;4.30;;;2.95;;
8536;SDS011;4306;50.210;10.628;2023-12-29T00:52:28;4.20;;;2.72;;
8536;SDS011;4306;50.210;10.628;2023-12-29T00:54:55;3.70;;;2.67;;
8536;SDS011;4306;50.210;10.628;2023-12-29T00:57:22;4.43;;;2.60;;
8536;SDS011;4306;50.210;10.628;2023-12-29T00:59:49;4.18;;;2.60;;
8536;SDS011;4306;50.210;10.628;2023-12-29T01:02:16;5.18;;;2.78;;
8536;SDS011;4306;50.210;10.628;2023-12-29T01:04:43;4.07;;;3.22;;
8536;SDS011;4306;50.210;10.628;2023-12-29T01:07:09;7.75;;;2.90;;
8536;SDS011;4306;50.210;10.628;2023-12-29T01:09:38;5.55;;;3.08;;
8536;SDS011;4306;50.210;10.628;2023-12-29T01:12:06;5.43;;;3.55;;
8536;SDS011;4306;50.210;10.628;2023-12-29T01:14:33;5.47;;;3.70;;
8536;SDS011;4306;50.210;10.628;2023-12-29T01:17:00;5.07;;;3.38;;
8536;SDS011;4306;50.210;10.628;2023-12-29T01:19:27;5.00;;;3.47;;
8536;SDS011;4306;50.210;10.628;2023-12-29T01:21:54;6.25;;;3.78;;
8536;SDS011;4306;50.210;10.628;2023-12-29T01:24:21;5.13;;;3.92;;
8536;SDS011;4306;50.210;10.628;2023-12-29T01:26:50;5.18;;;3.85;;
8536;SDS011;4306;50.210;10.628;2023-12-29T01:29:16;6.18;;;3.97;;
8536;SDS011;4306;50.210;10.628;2023-12-29T01:31:43;4.88;;;3.80;;
8536;SDS011;4306;50.210;10.628;2023-12-29T01:34:10;6.55;;;3.92;;
8536;SDS011;4306;50.210;10.628;2023-12-29T01:36:37;7.55;;;4.05;;
8536;SDS011;4306;50.210;10.628;2023-12-29T01:39:04;5.15;;;3.92;;
8536;SDS011;4306;50.210;10.628;2023-12-29T01:41:32;5.50;;;3.60;;
8536;SDS011;4306;50.210;10.628;2023-12-29T01:44:19;5.18;;;4.15;;
8536;SDS011;4306;50.210;10.628;2023-12-29T01:46:47;6.03;;;3.92;;
8536;SDS011;4306;50.210;10.628;2023-12-29T01:49:17;5.78;;;4.03;;
8536;SDS011;4306;50.210;10.628;2023-12-29T01:51:46;5.72;;;4.03;;
8536;SDS011;4306;50.210;10.628;2023-12-29T01:54:18;6.03;;;4.03;;
8536;SDS011;4306;50.210;10.628;2023-12-29T01:56:46;6.45;;;3.90;;
8536;SDS011;4306;50.210;10.628;2023-12-29T01:59:15;6.35;;;4.07;;
8536;SDS011;4306;50.210;10.628;2023-12-29T02:01:43;5.93;;;3.92;;
8536;SDS011;4306;50.210;10.628;2023-12-29T02:04:11;7.00;;;3.70;;
8536;SDS011;4306;50.210;10.628;2023-12-29T02:06:39;7.30;;;4.38;;
8536;SDS011;4306;50.210;10.628;2023-12-29T02:09:07;9.32;;;4.18;;
8536;SDS011;4306;50.210;10.628;2023-12-29T02:11:34;7.03;;;3.28;;
8536;SDS011;4306;50.210;10.628;2023-12-29T02:14:01;5.13;;;3.88;;
8536;SDS011;4306;50.210;10.628;2023-12-29T02:16:30;6.10;;;4.00;;
8536;SDS011;4306;50.210;10.628;2023-12-29T02:19:11;6.90;;;4.00;;
8536;SDS011;4306;50.210;10.628;2023-12-29T02:22:06;6.95;;;3.70;;
8536;SDS011;4306;50.210;10.628;2023-12-29T02:24:34;5.55;;;3.30;;
8536;SDS011;4306;50.210;10.628;2023-12-29T02:27:05;5.18;;;3.30;;
8536;SDS011;4306;50.210;10.628;2023-12-29T02:29:41;7.53;;;3.85;;
8536;SDS011;4306;50.210;10.628;2023-12-29T02:32:16;5.73;;;3.90;;
8536;SDS011;4306;50.210;10.628;2023-12-29T02:34:45;5.82;;;3.67;;
8536;SDS011;4306;50.210;10.628;2023-12-29T02:37:16;5.68;;;3.63;;
8536;SDS011;4306;50.210;10.628;2023-12-29T02:39:45;7.28;;;3.90;;
8536;SDS011;4306;50.210;10.628;2023-12-29T02:42:14;4.72;;;3.20;;
8536;SDS011;4306;50.210;10.628;2023-12-29T02:44:41;4.45;;;2.92;;
8536;SDS011;4306;50.210;10.628;2023-12-29T02:47:08;5.57;;;3.17;;
8536;SDS011;4306;50.210;10.628;2023-12-29T02:49:35;4.45;;;3.45;;
8536;SDS011;4306;50.210;10.628;2023-12-29T02:52:02;4.93;;;3.70;;
8536;SDS011;4306;50.210;10.628;2023-12-29T02:54:30;5.13;;;3.50;;
8536;SDS011;4306;50.210;10.628;2023-12-29T02:56:57;5.90;;;3.20;;
8536;SDS011;4306;50.210;10.628;2023-12-29T02:59:25;7.28;;;4.78;;
8536;SDS011;4306;50.210;10.628;2023-12-29T03:01:52;6.60;;;5.03;;
8536;SDS011;4306;50.210;10.628;2023-12-29T03:04:19;7.43;;;4.32;;
8536;SDS011;4306;50.210;10.628;2023-12-29T03:06:46;14.77;;;11.70;;
8536;SDS011;4306;50.210;10.628;2023-12-29T03:09:13;5.60;;;4.40;;
8536;SDS011;4306;50.210;10.628;2023-12-29T03:11:40;5.50;;;3.22;;
8536;SDS011;4306;50.210;10.628;2023-12-29T03:14:07;5.22;;;2.90;;
8536;SDS011;4306;50.210;10.628;2023-12-29T03:16:35;4.70;;;2.97;;
8536;SDS011;4306;50.210;10.628;2023-12-29T03:19:02;4.18;;;2.97;;
8536;SDS011;4306;50.210;10.628;2023-12-29T03:21:29;4.22;;;2.88;;
8536;SDS011;4306;50.210;10.628;2023-12-29T03:23:56;4.37;;;2.77;;
8536;SDS011;4306;50.210;10.628;2023-12-29T03:26:23;4.00;;;2.47;;
8536;SDS011;4306;50.210;10.628;2023-12-29T03:28:50;5.78;;;2.70;;
8536;SDS011;4306;50.210;10.628;2023-12-29T03:31:17;5.95;;;2.60;;
8536;SDS011;4306;50.210;10.628;2023-12-29T03:33:45;3.72;;;2.80;;
8536;SDS011;4306;50.210;10.628;2023-12-29T03:36:13;4.00;;;2.80;;
8536;SDS011;4306;50.210;10.628;2023-12-29T03:38:40;4.18;;;2.70;;
8536;SDS011;4306;50.210;10.628;2023-12-29T03:41:07;3.65;;;2.03;;
8536;SDS011;4306;50.210;10.628;2023-12-29T03:43:34;5.18;;;2.55;;
8536;SDS011;4306;50.210;10.628;2023-12-29T03:46:01;4.72;;;2.85;;
8536;SDS011;4306;50.210;10.628;2023-12-29T03:48:28;3.90;;;2.90;;
8536;SDS011;4306;50.210;10.628;2023-12-29T03:50:57;4.57;;;2.97;;
8536;SDS011;4306;50.210;10.628;2023-12-29T03:53:24;5.20;;;2.92;;
8536;SDS011;4306;50.210;10.628;2023-12-29T03:55:51;5.63;;;2.67;;
8536;SDS011;4306;50.210;10.628;2023-12-29T03:58:18;4.43;;;2.70;;
8536;SDS011;4306;50.210;10.628;2023-12-29T04:00:45;4.13;;;2.38;;
8536;SDS011;4306;50.210;10.628;2023-12-29T04:03:12;5.32;;;2.88;;
8536;SDS011;4306;50.210;10.628;2023-12-29T04:05:39;5.07;;;2.78;;
8536;SDS011;4306;50.210;10.628;2023-12-29T04:08:08;4.90;;;3.00;;
8536;SDS011;4306;50.210;10.628;2023-12-29T04:10:35;6.10;;;3.10;;
8536;SDS011;4306;50.210;10.628;2023-12-29T04:13:02;4.78;;;2.90;;
8536;SDS011;4306;50.210;10.628;2023-12-29T04:15:30;4.65;;;2.97;;
8536;SDS011;4306;50.210;10.628;2023-12-29T04:17:57;5.53;;;2.78;;
8536;SDS011;4306;50.210;10.628;2023-12-29T04:20:24;5.88;;;3.80;;
8536;SDS011;4306;50.210;10.628;2023-12-29T04:22:51;6.10;;;4.38;;
8536;SDS011;4306;50.210;10.628;2023-12-29T04:25:20;15.98;;;9.95;;
8536;SDS011;4306;50.210;10.628;2023-12-29T04:27:47;6.97;;;4.22;;
8536;SDS011;4306;50.210;10.628;2023-12-29T04:30:14;5.13;;;2.92;;
8536;SDS011;4306;50.210;10.628;2023-12-29T04:32:41;4.45;;;2.92;;
8536;SDS011;4306;50.210;10.628;2023-12-29T04:35:08;5.00;;;3.10;;
8536;SDS011;4306;50.210;10.628;2023-12-29T04:37:37;5.30;;;3.90;;
8536;SDS011;4306;50.210;10.628;2023-12-29T04:40:05;5.30;;;3.00;;
8536;SDS011;4306;50.210;10.628;2023-12-29T04:42:34;7.60;;;3.42;;
8536;SDS011;4306;50.210;10.628;2023-12-29T04:45:02;5.75;;;3.50;;
8536;SDS011;4306;50.210;10.628;2023-12-29T04:47:30;6.75;;;4.40;;
8536;SDS011;4306;50.210;10.628;2023-12-29T04:49:57;5.20;;;3.65;;
8536;SDS011;4306;50.210;10.628;2023-12-29T04:52:24;7.10;;;4.00;;
8536;SDS011;4306;50.210;10.628;2023-12-29T04:54:51;7.85;;;5.70;;
8536;SDS011;4306;50.210;10.628;2023-12-29T04:57:18;9.93;;;5.38;;
8536;SDS011;4306;50.210;10.628;2023-12-29T04:59:46;6.13;;;3.95;;
8536;SDS011;4306;50.210;10.628;2023-12-29T05:02:13;6.97;;;3.85;;
8536;SDS011;4306;50.210;10.628;2023-12-29T05:04:40;6.93;;;3.78;;
8536;SDS011;4306;50.210;10.628;2023-12-29T05:07:08;5.50;;;3.42;;
8536;SDS011;4306;50.210;10.628;2023-12-29T05:09:35;5.40;;;3.85;;
8536;SDS011;4306;50.210;10.628;2023-12-29T05:12:03;5.65;;;3.53;;
8536;SDS011;4306;50.210;10.628;2023-12-29T05:14:30;5.15;;;3.78;;
8536;SDS011;4306;50.210;10.628;2023-12-29T05:16:59;7.95;;;6.93;;
8536;SDS011;4306;50.210;10.628;2023-12-29T05:19:26;9.68;;;8.65;;
8536;SDS011;4306;50.210;10.628;2023-12-29T05:21:53;7.13;;;5.20;;
8536;SDS011;4306;50.210;10.628;2023-12-29T05:24:20;5.28;;;4.10;;
8536;SDS011;4306;50.210;10.628;2023-12-29T05:26:47;4.65;;;3.35;;
8536;SDS011;4306;50.210;10.628;2023-12-29T05:29:14;3.90;;;3.03;;
8536;SDS011;4306;50.210;10.628;2023-12-29T05:31:41;5.97;;;3.75;;
8536;SDS011;4306;50.210;10.628;2023-12-29T05:34:09;4.88;;;3.05;;
8536;SDS011;4306;50.210;10.628;2023-12-29T05:36:37;4.50;;;3.10;;
8536;SDS011;4306;50.210;10.628;2023-12-29T05:39:04;4.45;;;3.05;;
8536;SDS011;4306;50.210;10.628;2023-12-29T05:41:32;4.45;;;2.85;;
8536;SDS011;4306;50.210;10.628;2023-12-29T05:43:59;5.30;;;3.00;;
8536;SDS011;4306;50.210;10.628;2023-12-29T05:46:26;3.55;;;2.47;;
8536;SDS011;4306;50.210;10.628;2023-12-29T05:48:53;4.80;;;3.58;;
8536;SDS011;4306;50.210;10.628;2023-12-29T05:51:22;5.50;;;2.97;;
8536;SDS011;4306;50.210;10.628;2023-12-29T05:53:49;4.80;;;2.40;;
8536;SDS011;4306;50.210;10.628;2023-12-29T05:56:16;3.95;;;2.65;;
8536;SDS011;4306;50.210;10.628;2023-12-29T05:58:43;5.10;;;3.00;;
8536;SDS011;4306;50.210;10.628;2023-12-29T06:01:10;5.80;;;3.00;;
8536;SDS011;4306;50.210;10.628;2023-12-29T06:03:37;4.38;;;2.53;;
8536;SDS011;4306;50.210;10.628;2023-12-29T06:06:05;5.03;;;2.75;;
8536;SDS011;4306;50.210;10.628;2023-12-29T06:08:33;4.78;;;3.00;;
8536;SDS011;4306;50.210;10.628;2023-12-29T06:11:00;3.45;;;2.20;;
8536;SDS011;4306;50.210;10.628;2023-12-29T06:13:28;3.55;;;2.15;;
8536;SDS011;4306;50.210;10.628;2023-12-29T06:15:55;4.55;;;2.88;;
8536;SDS011;4306;50.210;10.628;2023-12-29T06:18:22;4.43;;;2.45;;
8536;SDS011;4306;50.210;10.628;2023-12-29T06:20:49;4.78;;;2.88;;
8536;SDS011;4306;50.210;10.628;2023-12-29T06:23:16;3.70;;;2.47;;
8536;SDS011;4306;50.210;10.628;2023-12-29T06:25:46;4.03;;;2.80;;
8536;SDS011;4306;50.210;10.628;2023-12-29T06:28:13;4.80;;;2.55;;
8536;SDS011;4306;50.210;10.628;2023-12-29T06:30:41;5.38;;;2.85;;
8536;SDS011;4306;50.210;10.628;2023-12-29T06:33:08;4.65;;;2.50;;
8536;SDS011;4306;50.210;10.628;2023-12-29T06:35:35;6.27;;;2.70;;
8536;SDS011;4306;50.210;10.628;2023-12-29T06:38:04;3.60;;;2.50;;
8536;SDS011;4306;50.210;10.628;2023-12-29T06:40:31;4.15;;;2.20;;
8536;SDS011;4306;50.210;10.628;2023-12-29T06:42:59;4.85;;;2.13;;
8536;SDS011;4306;50.210;10.628;2023-12-29T06:45:26;4.53;;;2.83;;
8536;SDS011;4306;50.210;10.628;2023-12-29T06:47:53;3.47;;;2.17;;
8536;SDS011;4306;50.210;10.628;2023-12-29T06:50:20;4.30;;;2.10;;
8536;SDS011;4306;50.210;10.628;2023-12-29T06:52:48;6.15;;;2.45;;
8536;SDS011;4306;50.210;10.628;2023-12-29T06:55:15;4.45;;;2.97;;
8536;SDS011;4306;50.210;10.628;2023-12-29T06:57:42;4.38;;;2.65;;
8536;SDS011;4306;50.210;10.628;2023-12-29T07:00:11;4.65;;;2.85;;
8536;SDS011;4306;50.210;10.628;2023-12-29T07:02:39;5.00;;;2.50;;
8536;SDS011;4306;50.210;10.628;2023-12-29T07:05:07;3.80;;;2.47;;
8536;SDS011;4306;50.210;10.628;2023-12-29T07:07:34;6.15;;;2.50;;
8536;SDS011;4306;50.210;10.628;2023-12-29T07:10:02;3.97;;;2.45;;
8536;SDS011;4306;50.210;10.628;2023-12-29T07:12:31;4.13;;;2.90;;
8536;SDS011;4306;50.210;10.628;2023-12-29T07:14:58;4.22;;;2.50;;
8536;SDS011;4306;50.210;10.628;2023-12-29T07:17:26;4.40;;;2.97;;
8536;SDS011;4306;50.210;10.628;2023-12-29T07:19:53;5.20;;;2.92;;
8536;SDS011;4306;50.210;10.628;2023-12-29T07:22:21;5.78;;;3.17;;
8536;SDS011;4306;50.210;10.628;2023-12-29T07:24:48;6.13;;;3.40;;
8536;SDS011;4306;50.210;10.628;2023-12-29T07:27:15;6.35;;;2.90;;
8536;SDS011;4306;50.210;10.628;2023-12-29T07:29:42;5.95;;;3.10;;
8536;SDS011;4306;50.210;10.628;2023-12-29T07:32:09;5.10;;;2.97;;
8536;SDS011;4306;50.210;10.628;2023-12-29T07:34:38;5.20;;;3.67;;
8536;SDS011;4306;50.210;10.628;2023-12-29T07:37:05;5.43;;;3.13;;
8536;SDS011;4306;50.210;10.628;2023-12-29T07:39:35;4.30;;;3.17;;
8536;SDS011;4306;50.210;10.628;2023-12-29T07:42:03;5.70;;;3.17;;
8536;SDS011;4306;50.210;10.628;2023-12-29T07:44:30;4.95;;;3.10;;
8536;SDS011;4306;50.210;10.628;2023-12-29T07:46:57;6.93;;;3.45;;
8536;SDS011;4306;50.210;10.628;2023-12-29T07:49:24;4.75;;;2.95;;
8536;SDS011;4306;50.210;10.628;2023-12-29T07:51:53;4.63;;;3.08;;
8536;SDS011;4306;50.210;10.628;2023-12-29T07:54:24;5.03;;;2.85;;
8536;SDS011;4306;50.210;10.628;2023-12-29T07:56:51;4.63;;;2.83;;
8536;SDS011;4306;50.210;10.628;2023-12-29T07:59:18;5.43;;;3.15;;
8536;SDS011;4306;50.210;10.628;2023-12-29T08:01:45;5.00;;;3.00;;
8536;SDS011;4306;50.210;10.628;2023-12-29T08:04:12;4.25;;;3.17;;
8536;SDS011;4306;50.210;10.628;2023-12-29T08:06:39;5.63;;;3.15;;
8536;SDS011;4306;50.210;10.628;2023-12-29T08:09:08;4.68;;;2.70;;
8536;SDS011;4306;50.210;10.628;2023-12-29T08:11:36;3.75;;;2.75;;
8536;SDS011;4306;50.210;10.628;2023-12-29T08:14:03;4.20;;;2.85;;
8536;SDS011;4306;50.210;10.628;2023-12-29T08:16:31;6.18;;;2.97;;
8536;SDS011;4306;50.210;10.628;2023-12-29T08:18:59;5.70;;;3.30;;
8536;SDS011;4306;50.210;10.628;2023-12-29T08:21:26;5.47;;;3.08;;
8536;SDS011;4306;50.210;10.628;2023-12-29T08:23:54;4.70;;;2.80;;
8536;SDS011;4306;50.210;10.628;2023-12-29T08:26:22;6.82;;;3.10;;
8536;SDS011;4306;50.210;10.628;2023-12-29T08:28:49;5.57;;;3.20;;
8536;SDS011;4306;50.210;10.628;2023-12-29T08:31:17;5.20;;;3.17;;
8536;SDS011;4306;50.210;10.628;2023-12-29T08:33:45;5.15;;;2.53;;
8536;SDS011;4306;50.210;10.628;2023-12-29T08:36:12;5.18;;;3.20;;
8536;SDS011;4306;50.210;10.628;2023-12-29T08:38:39;4.57;;;2.63;;
8536;SDS011;4306;50.210;10.628;2023-12-29T08:41:06;3.65;;;2.65;;
8536;SDS011;4306;50.210;10.628;2023-12-29T08:43:35;4.85;;;2.97;;
8536;SDS011;4306;50.210;10.628;2023-12-29T08:46:02;3.35;;;2.40;;
8536;SDS011;4306;50.210;10.628;2023-12-29T08:48:29;3.55;;;2.53;;
8536;SDS011;4306;50.210;10.628;2023-12-29T08:50:56;4.53;;;2.83;;
8536;SDS011;4306;50.210;10.628;2023-12-29T08:53:23;5.25;;;2.65;;
8536;SDS011;4306;50.210;10.628;2023-12-29T08:55:50;5.78;;;2.88;;
8536;SDS011;4306;50.210;10.628;2023-12-29T08:58:17;4.72;;;2.85;;
8536;SDS011;4306;50.210;10.628;2023-12-29T09:00:46;4.95;;;2.90;;
8536;SDS011;4306;50.210;10.628;2023-12-29T09:03:13;5.13;;;2.83;;
8536;SDS011;4306;50.210;10.628;2023-12-29T09:05:40;5.43;;;2.65;;
8536;SDS011;4306;50.210;10.628;2023-12-29T09:08:07;4.88;;;3.15;;
8536;SDS011;4306;50.210;10.628;2023-12-29T09:10:34;5.53;;;2.42;;
8536;SDS011;4306;50.210;10.628;2023-12-29T09:13:01;6.53;;;4.60;;
8536;SDS011;4306;50.210;10.628;2023-12-29T09:15:28;6.70;;;4.57;;
8536;SDS011;4306;50.210;10.628;2023-12-29T09:17:56;5.50;;;2.58;;
8536;SDS011;4306;50.210;10.628;2023-12-29T09:20:25;4.13;;;2.70;;
8536;SDS011;4306;50.210;10.628;2023-12-29T09:22:52;4.05;;;2.75;;
8536;SDS011;4306;50.210;10.628;2023-12-29T09:25:20;5.05;;;3.60;;
8536;SDS011;4306;50.210;10.628;2023-12-29T09:27:47;3.80;;;2.35;;
8536;SDS011;4306;50.210;10.628;2023-12-29T09:30:17;4.68;;;2.53;;
8536;SDS011;4306;50.210;10.628;2023-12-29T09:32:44;3.75;;;2.22;;
8536;SDS011;4306;50.210;10.628;2023-12-29T09:35:13;3.65;;;2.22;;
8536;SDS011;4306;50.210;10.628;2023-12-29T09:37:41;4.47;;;2.30;;
8536;SDS011;4306;50.210;10.628;2023-12-29T09:40:09;3.17;;;2.25;;
8536;SDS011;4306;50.210;10.628;2023-12-29T09:42:37;2.85;;;1.80;;
8536;SDS011;4306;50.210;10.628;2023-12-29T09:45:06;3.10;;;1.70;;
8536;SDS011;4306;50.210;10.628;2023-12-29T09:47:38;3.42;;;1.65;;
8536;SDS011;4306;50.210;10.628;2023-12-29T09:50:07;2.72;;;1.70;;
8536;SDS011;4306;50.210;10.628;2023-12-29T09:52:40;2.97;;;1.48;;
8536;SDS011;4306;50.210;10.628;2023-12-29T09:55:08;2.22;;;1.50;;
8536;SDS011;4306;50.210;10.628;2023-12-29T09:57:36;1.88;;;1.40;;
8536;SDS011;4306;50.210;10.628;2023-12-29T10:00:04;8.07;;;3.10;;
8536;SDS011;4306;50.210;10.628;2023-12-29T10:02:33;3.28;;;1.80;;
8536;SDS011;4306;50.210;10.628;2023-12-29T10:05:01;2.72;;;1.60;;
8536;SDS011;4306;50.210;10.628;2023-12-29T10:07:32;2.17;;;1.60;;
8536;SDS011;4306;50.210;10.628;2023-12-29T10:10:03;5.55;;;1.50;;
8536;SDS011;4306;50.210;10.628;2023-12-29T10:12:32;3.13;;;1.80;;
8536;SDS011;4306;50.210;10.628;2023-12-29T10:15:05;3.25;;;1.63;;
8536;SDS011;4306;50.210;10.628;2023-12-29T10:17:40;3.30;;;1.77;;
8536;SDS011;4306;50.210;10.628;2023-12-29T10:20:21;2.72;;;1.60;;
8536;SDS011;4306;50.210;10.628;2023-12-29T10:23:18;2.60;;;1.50;;
8536;SDS011;4306;50.210;10.628;2023-12-29T10:25:49;4.05;;;1.50;;
8536;SDS011;4306;50.210;10.628;2023-12-29T10:28:16;2.72;;;1.58;;
8536;SDS011;4306;50.210;10.628;2023-12-29T10:30:43;3.97;;;2.03;;
8536;SDS011;4306;50.210;10.628;2023-12-29T10:33:11;3.10;;;1.52;;
8536;SDS011;4306;50.210;10.628;2023-12-29T10:35:55;2.47;;;1.55;;
8536;SDS011;4306;50.210;10.628;2023-12-29T10:38:28;3.28;;;1.67;;
8536;SDS011;4306;50.210;10.628;2023-12-29T10:40:57;2.35;;;1.50;;
8536;SDS011;4306;50.210;10.628;2023-12-29T10:43:39;2.75;;;1.75;;
8536;SDS011;4306;50.210;10.628;2023-12-29T10:46:07;3.17;;;1.35;;
8536;SDS011;4306;50.210;10.628;2023-12-29T10:48:36;3.45;;;2.10;;
8536;SDS011;4306;50.210;10.628;2023-12-29T10:51:04;2.92;;;2.08;;
8536;SDS011;4306;50.210;10.628;2023-12-29T10:53:33;1.95;;;1.40;;
8536;SDS011;4306;50.210;10.628;2023-12-29T10:56:02;3.50;;;1.63;;
8536;SDS011;4306;50.210;10.628;2023-12-29T10:58:30;3.03;;;1.35;;
8536;SDS011;4306;50.210;10.628;2023-12-29T11:01:02;2.78;;;1.42;;
8536;SDS011;4306;50.210;10.628;2023-12-29T11:03:44;2.33;;;1.20;;
8536;SDS011;4306;50.210;10.628;2023-12-29T11:06:23;2.70;;;1.52;;
8536;SDS011;4306;50.210;10.628;2023-12-29T11:08:52;4.15;;;1.73;;
8536;SDS011;4306;50.210;10.628;2023-12-29T11:11:19;2.22;;;1.23;;
8536;SDS011;4306;50.210;10.628;2023-12-29T11:13:46;1.98;;;1.42;;
8536;SDS011;4306;50.210;10.628;2023-12-29T11:16:14;4.05;;;1.90;;
8536;SDS011;4306;50.210;10.628;2023-12-29T11:18:46;4.30;;;1.67;;
8536;SDS011;4306;50.210;10.628;2023-12-29T11:21:16;2.38;;;1.48;;
8536;SDS011;4306;50.210;10.628;2023-12-29T11:23:44;2.60;;;1.50;;
8536;SDS011;4306;50.210;10.628;2023-12-29T11:26:14;2.33;;;1.20;;
8536;SDS011;4306;50.210;10.628;2023-12-29T11:28:42;5.88;;;1.77;;
8536;SDS011;4306;50.210;10.628;2023-12-29T11:31:13;3.22;;;1.30;;
8536;SDS011;4306;50.210;10.628;2023-12-29T11:33:42;3.03;;;1.35;;
8536;SDS011;4306;50.210;10.628;2023-12-29T11:36:16;3.10;;;1.60;;
8536;SDS011;4306;50.210;10.628;2023-12-29T11:38:52;3.78;;;1.55;;
8536;SDS011;4306;50.210;10.628;2023-12-29T11:41:27;4.13;;;1.38;;
8536;SDS011;4306;50.210;10.628;2023-12-29T11:44:04;2.25;;;1.35;;
8536;SDS011;4306;50.210;10.628;2023-12-29T11:46:35;4.20;;;1.60;;
8536;SDS011;4306;50.210;10.628;2023-12-29T11:49:04;3.53;;;1.60;;
8536;SDS011;4306;50.210;10.628;2023-12-29T11:51:34;2.03;;;1.20;;
8536;SDS011;4306;50.210;10.628;2023-12-29T11:54:04;2.38;;;1.35;;
8536;SDS011;4306;50.210;10.628;2023-12-29T11:56:37;3.13;;;1.48;;
8536;SDS011;4306;50.210;10.628;2023-12-29T11:59:11;3.80;;;1.92;;
8536;SDS011;4306;50.210;10.628;2023-12-29T12:01:43;3.80;;;1.42;;
8536;SDS011;4306;50.210;10.628;2023-12-29T12:07:07;4.43;;;1.55;;
8536;SDS011;4306;50.210;10.628;2023-12-29T12:09:36;2.85;;;1.20;;
8536;SDS011;4306;50.210;10.628;2023-12-29T12:12:04;3.28;;;1.63;;
8536;SDS011;4306;50.210;10.628;2023-12-29T12:14:45;2.70;;;1.50;;
8536;SDS011;4306;50.210;10.628;2023-12-29T12:17:27;3.58;;;1.35;;
8536;SDS011;4306;50.210;10.628;2023-12-29T12:20:03;2.70;;;1.23;;
8536;SDS011;4306;50.210;10.628;2023-12-29T12:22:34;2.67;;;1.65;;
8536;SDS011;4306;50.210;10.628;2023-12-29T12:25:03;1.80;;;1.30;;
8536;SDS011;4306;50.210;10.628;2023-12-29T12:27:33;2.20;;;1.35;;
8536;SDS011;4306;50.210;10.628;2023-12-29T12:30:01;2.50;;;1.50;;
8536;SDS011;4306;50.210;10.628;2023-12-29T12:32:29;4.80;;;2.10;;
8536;SDS011;4306;50.210;10.628;2023-12-29T12:34:56;3.47;;;1.60;;
8536;SDS011;4306;50.210;10.628;2023-12-29T12:37:24;2.67;;;1.63;;
8536;SDS011;4306;50.210;10.628;2023-12-29T12:39:52;3.42;;;2.00;;
8536;SDS011;4306;50.210;10.628;2023-12-29T12:42:20;2.25;;;1.38;;
8536;SDS011;4306;50.210;10.628;2023-12-29T12:44:54;2.88;;;1.60;;
8536;SDS011;4306;50.210;10.628;2023-12-29T12:47:25;2.20;;;1.50;;
8536;SDS011;4306;50.210;10.628;2023-12-29T12:49:58;3.33;;;1.40;;
8536;SDS011;4306;50.210;10.628;2023-12-29T12:52:26;2.97;;;1.33;;
8536;SDS011;4306;50.210;10.628;2023-12-29T12:54:58;2.85;;;1.50;;
8536;SDS011;4306;50.210;10.628;2023-12-29T12:57:30;3.20;;;1.80;;
8536;SDS011;4306;50.210;10.628;2023-12-29T12:59:59;5.13;;;1.60;;
8536;SDS011;4306;50.210;10.628;2023-12-29T13:02:28;3.20;;;1.88;;
8536;SDS011;4306;50.210;10.628;2023-12-29T13:04:56;5.22;;;1.60;;
8536;SDS011;4306;50.210;10.628;2023-12-29T13:07:24;3.22;;;2.20;;
8536;SDS011;4306;50.210;10.628;2023-12-29T13:09:51;3.50;;;1.42;;
8536;SDS011;4306;50.210;10.628;2023-12-29T13:12:19;2.55;;;1.20;;
8536;SDS011;4306;50.210;10.628;2023-12-29T13:14:46;1.98;;;1.20;;
8536;SDS011;4306;50.210;10.628;2023-12-29T13:17:15;4.50;;;1.40;;
8536;SDS011;4306;50.210;10.628;2023-12-29T13:19:42;3.45;;;1.55;;
8536;SDS011;4306;50.210;10.628;2023-12-29T13:22:10;3.85;;;1.58;;
8536;SDS011;4306;50.210;10.628;2023-12-29T13:24:42;1.98;;;1.10;;
8536;SDS011;4306;50.210;10.628;2023-12-29T13:27:10;3.90;;;2.28;;
8536;SDS011;4306;50.210;10.628;2023-12-29T13:29:38;3.13;;;1.70;;
8536;SDS011;4306;50.210;10.628;2023-12-29T13:32:07;4.60;;;1.70;;
8536;SDS011;4306;50.210;10.628;2023-12-29T13:34:42;2.80;;;1.30;;
8536;SDS011;4306;50.210;10.628;2023-12-29T13:37:19;1.98;;;1.00;;
8536;SDS011;4306;50.210;10.628;2023-12-29T13:39:53;2.33;;;1.10;;
8536;SDS011;4306;50.210;10.628;2023-12-29T13:42:28;3.13;;;1.40;;
8536;SDS011;4306;50.210;10.628;2023-12-29T13:44:57;2.78;;;1.35;;
8536;SDS011;4306;50.210;10.628;2023-12-29T13:47:27;2.65;;;1.30;;
8536;SDS011;4306;50.210;10.628;2023-12-29T13:49:56;2.30;;;1.40;;
8536;SDS011;4306;50.210;10.628;2023-12-29T13:52:23;4.93;;;1.38;;
8536;SDS011;4306;50.210;10.628;2023-12-29T13:54:50;2.83;;;1.17;;
8536;SDS011;4306;50.210;10.628;2023-12-29T13:57:17;2.33;;;1.10;;
8536;SDS011;4306;50.210;10.628;2023-12-29T13:59:44;4.60;;;1.20;;
8536;SDS011;4306;50.210;10.628;2023-12-29T14:02:23;2.22;;;1.00;;
8536;SDS011;4306;50.210;10.628;2023-12-29T14:07:45;2.50;;;0.90;;
8536;SDS011;4306;50.210;10.628;2023-12-29T14:10:18;4.50;;;1.15;;
8536;SDS011;4306;50.210;10.628;2023-12-29T14:12:45;3.42;;;1.10;;
8536;SDS011;4306;50.210;10.628;2023-12-29T14:15:13;3.45;;;1.77;;
8536;SDS011;4306;50.210;10.628;2023-12-29T14:17:40;6.05;;;3.20;;
8536;SDS011;4306;50.210;10.628;2023-12-29T14:20:07;2.03;;;1.10;;
8536;SDS011;4306;50.210;10.628;2023-12-29T14:22:36;4.55;;;1.25;;
8536;SDS011;4306;50.210;10.628;2023-12-29T14:25:04;3.17;;;1.38;;
8536;SDS011;4306;50.210;10.628;2023-12-29T14:27:34;3.60;;;1.40;;
8536;SDS011;4306;50.210;10.628;2023-12-29T14:30:04;4.05;;;1.00;;
8536;SDS011;4306;50.210;10.628;2023-12-29T14:32:44;2.13;;;0.90;;
8536;SDS011;4306;50.210;10.628;2023-12-29T14:35:12;2.58;;;1.25;;
8536;SDS011;4306;50.210;10.628;2023-12-29T14:37:41;1.83;;;0.93;;
8536;SDS011;4306;50.210;10.628;2023-12-29T14:40:10;2.25;;;1.10;;
8536;SDS011;4306;50.210;10.628;2023-12-29T14:42:38;1.65;;;1.00;;
8536;SDS011;4306;50.210;10.628;2023-12-29T14:45:06;2.72;;;1.52;;
8536;SDS011;4306;50.210;10.628;2023-12-29T14:47:34;2.47;;;1.25;;
8536;SDS011;4306;50.210;10.628;2023-12-29T14:50:01;1.92;;;1.10;;
8536;SDS011;4306;50.210;10.628;2023-12-29T14:52:29;2.05;;;1.08;;
8536;SDS011;4306;50.210;10.628;2023-12-29T14:54:57;3.33;;;1.13;;
8536;SDS011;4306;50.210;10.628;2023-12-29T14:57:24;3.30;;;1.10;;
8536;SDS011;4306;50.210;10.628;2023-12-29T14:59:51;2.33;;;1.08;;
8536;SDS011;4306;50.210;10.628;2023-12-29T15:02:18;4.15;;;2.72;;
8536;SDS011;4306;50.210;10.628;2023-12-29T15:04:46;2.25;;;1.23;;
8536;SDS011;4306;50.210;10.628;2023-12-29T15:07:14;2.17;;;1.20;;
8536;SDS011;4306;50.210;10.628;2023-12-29T15:09:42;4.68;;;2.28;;
8536;SDS011;4306;50.210;10.628;2023-12-29T15:12:10;3.88;;;2.08;;
8536;SDS011;4306;50.210;10.628;2023-12-29T15:14:37;3.17;;;1.80;;